sensor_id;sensor_type;location;lat;lon;timestamp;temperature;humidity
48806;DHT22;34625;47.176;27.548;2022-12-13T00:00:25;21.60;64.90
48806;DHT22;34625;47.176;27.548;2022-12-13T00:02:51;21.70;64.70
48806;DHT22;34625;47.176;27.548;2022-12-13T00:05:17;21.80;64.60
48806;DHT22;34625;47.176;27.548;2022-12-13T00:07:43;21.70;64.60
48806;DHT22;34625;47.176;27.548;2022-12-13T00:10:09;21.70;64.50
48806;DHT22;34625;47.176;27.548;2022-12-13T00:12:35;21.60;64.90
48806;DHT22;34625;47.176;27.548;2022-12-13T00:15:01;21.70;64.90
48806;DHT22;34625;47.176;27.548;2022-12-13T00:17:27;21.50;64.80
48806;DHT22;34625;47.176;27.548;2022-12-13T00:19:53;21.50;65.00
48806;DHT22;34625;47.176;27.548;2022-12-13T00:22:19;21.50;64.70
48806;DHT22;34625;47.176;27.548;2022-12-13T00:24:45;21.50;64.80
48806;DHT22;34625;47.176;27.548;2022-12-13T00:27:11;21.50;65.00
48806;DHT22;34625;47.176;27.548;2022-12-13T00:29:37;21.40;65.20
48806;DHT22;34625;47.176;27.548;2022-12-13T00:32:03;21.50;65.20
48806;DHT22;34625;47.176;27.548;2022-12-13T00:34:29;21.50;65.20
48806;DHT22;34625;47.176;27.548;2022-12-13T00:36:55;21.40;65.10
48806;DHT22;34625;47.176;27.548;2022-12-13T00:39:24;21.50;64.80
48806;DHT22;34625;47.176;27.548;2022-12-13T00:41:50;21.50;64.50
48806;DHT22;34625;47.176;27.548;2022-12-13T00:44:16;21.40;64.50
48806;DHT22;34625;47.176;27.548;2022-12-13T00:46:44;21.40;64.50
48806;DHT22;34625;47.176;27.548;2022-12-13T00:49:12;21.40;64.30
48806;DHT22;34625;47.176;27.548;2022-12-13T00:51:38;21.50;64.20
48806;DHT22;34625;47.176;27.548;2022-12-13T00:54:05;21.50;64.00
48806;DHT22;34625;47.176;27.548;2022-12-13T00:56:32;21.50;64.00
48806;DHT22;34625;47.176;27.548;2022-12-13T00:58:58;21.40;64.00
48806;DHT22;34625;47.176;27.548;2022-12-13T01:01:30;21.40;64.20
48806;DHT22;34625;47.176;27.548;2022-12-13T01:03:58;21.40;63.90
48806;DHT22;34625;47.176;27.548;2022-12-13T01:06:39;21.20;64.00
48806;DHT22;34625;47.176;27.548;2022-12-13T01:09:11;21.30;64.20
48806;DHT22;34625;47.176;27.548;2022-12-13T01:11:39;21.20;62.80
48806;DHT22;34625;47.176;27.548;2022-12-13T01:14:05;21.30;64.50
48806;DHT22;34625;47.176;27.548;2022-12-13T01:16:31;21.30;64.20
48806;DHT22;34625;47.176;27.548;2022-12-13T01:18:57;21.40;63.70
48806;DHT22;34625;47.176;27.548;2022-12-13T01:21:23;21.30;64.10
48806;DHT22;34625;47.176;27.548;2022-12-13T01:23:49;21.30;63.80
48806;DHT22;34625;47.176;27.548;2022-12-13T01:26:19;21.20;63.70
48806;DHT22;34625;47.176;27.548;2022-12-13T01:28:45;21.40;64.60
48806;DHT22;34625;47.176;27.548;2022-12-13T01:31:14;21.30;64.30
48806;DHT22;34625;47.176;27.548;2022-12-13T01:33:41;21.30;64.30
48806;DHT22;34625;47.176;27.548;2022-12-13T01:36:10;21.30;64.30
48806;DHT22;34625;47.176;27.548;2022-12-13T01:38:36;21.30;64.20
48806;DHT22;34625;47.176;27.548;2022-12-13T01:41:02;21.20;64.10
48806;DHT22;34625;47.176;27.548;2022-12-13T01:45:54;21.30;64.10
48806;DHT22;34625;47.176;27.548;2022-12-13T01:48:25;21.30;64.20
48806;DHT22;34625;47.176;27.548;2022-12-13T01:50:55;21.40;64.20
48806;DHT22;34625;47.176;27.548;2022-12-13T01:53:26;21.30;63.70
48806;DHT22;34625;47.176;27.548;2022-12-13T01:55:56;21.30;63.80
48806;DHT22;34625;47.176;27.548;2022-12-13T01:58:23;21.20;63.90
48806;DHT22;34625;47.176;27.548;2022-12-13T02:00:49;21.20;64.00
48806;DHT22;34625;47.176;27.548;2022-12-13T02:03:16;21.30;64.30
48806;DHT22;34625;47.176;27.548;2022-12-13T02:05:50;21.10;64.60
48806;DHT22;34625;47.176;27.548;2022-12-13T02:08:18;21.10;64.20
48806;DHT22;34625;47.176;27.548;2022-12-13T02:10:44;21.00;64.40
48806;DHT22;34625;47.176;27.548;2022-12-13T02:13:11;21.10;64.70
48806;DHT22;34625;47.176;27.548;2022-12-13T02:27:10;21.00;64.40
48806;DHT22;34625;47.176;27.548;2022-12-13T02:32:30;20.90;64.90
48806;DHT22;34625;47.176;27.548;2022-12-13T02:43:27;20.90;64.60
48806;DHT22;34625;47.176;27.548;2022-12-13T02:45:58;21.00;64.70
48806;DHT22;34625;47.176;27.548;2022-12-13T02:48:32;21.00;64.50
48806;DHT22;34625;47.176;27.548;2022-12-13T02:51:00;21.00;64.60
48806;DHT22;34625;47.176;27.548;2022-12-13T02:53:28;21.00;64.30
48806;DHT22;34625;47.176;27.548;2022-12-13T02:55:56;20.80;64.30
48806;DHT22;34625;47.176;27.548;2022-12-13T02:58:28;20.90;64.40
48806;DHT22;34625;47.176;27.548;2022-12-13T03:06:43;20.80;64.70
48806;DHT22;34625;47.176;27.548;2022-12-13T03:09:35;20.70;64.60
48806;DHT22;34625;47.176;27.548;2022-12-13T03:18:04;20.70;65.20
48806;DHT22;34625;47.176;27.548;2022-12-13T03:20:48;20.60;65.10
48806;DHT22;34625;47.176;27.548;2022-12-13T03:23:16;20.60;65.10
48806;DHT22;34625;47.176;27.548;2022-12-13T03:25:43;20.60;64.80
48806;DHT22;34625;47.176;27.548;2022-12-13T03:28:10;20.60;64.90
48806;DHT22;34625;47.176;27.548;2022-12-13T03:30:37;20.60;64.80
48806;DHT22;34625;47.176;27.548;2022-12-13T03:33:03;20.50;64.90
48806;DHT22;34625;47.176;27.548;2022-12-13T03:35:29;20.60;65.00
48806;DHT22;34625;47.176;27.548;2022-12-13T03:37:55;20.50;65.00
48806;DHT22;34625;47.176;27.548;2022-12-13T03:40:21;20.60;64.90
48806;DHT22;34625;47.176;27.548;2022-12-13T03:42:47;20.60;64.70
48806;DHT22;34625;47.176;27.548;2022-12-13T03:45:14;20.60;64.50
48806;DHT22;34625;47.176;27.548;2022-12-13T03:47:40;20.60;64.40
48806;DHT22;34625;47.176;27.548;2022-12-13T03:50:06;20.50;64.30
48806;DHT22;34625;47.176;27.548;2022-12-13T03:52:32;20.60;64.20
48806;DHT22;34625;47.176;27.548;2022-12-13T03:54:59;20.60;64.00
48806;DHT22;34625;47.176;27.548;2022-12-13T03:57:25;20.60;64.00
48806;DHT22;34625;47.176;27.548;2022-12-13T03:59:51;20.60;63.80
48806;DHT22;34625;47.176;27.548;2022-12-13T04:02:17;20.50;63.90
48806;DHT22;34625;47.176;27.548;2022-12-13T04:04:42;20.40;63.80
48806;DHT22;34625;47.176;27.548;2022-12-13T04:07:08;20.50;63.90
48806;DHT22;34625;47.176;27.548;2022-12-13T04:09:34;20.40;64.10
48806;DHT22;34625;47.176;27.548;2022-12-13T04:12:00;20.30;64.30
48806;DHT22;34625;47.176;27.548;2022-12-13T04:14:45;20.20;64.20
48806;DHT22;34625;47.176;27.548;2022-12-13T04:17:12;20.30;64.30
48806;DHT22;34625;47.176;27.548;2022-12-13T04:19:38;20.30;64.20
48806;DHT22;34625;47.176;27.548;2022-12-13T04:22:04;20.30;64.50
48806;DHT22;34625;47.176;27.548;2022-12-13T04:24:30;20.10;64.60
48806;DHT22;34625;47.176;27.548;2022-12-13T04:26:55;20.30;64.60
48806;DHT22;34625;47.176;27.548;2022-12-13T04:29:21;20.30;64.30
48806;DHT22;34625;47.176;27.548;2022-12-13T04:31:47;20.30;64.10
48806;DHT22;34625;47.176;27.548;2022-12-13T04:34:13;20.20;64.10
48806;DHT22;34625;47.176;27.548;2022-12-13T04:36:39;20.20;64.60
48806;DHT22;34625;47.176;27.548;2022-12-13T04:39:06;20.20;64.50
48806;DHT22;34625;47.176;27.548;2022-12-13T04:41:36;20.20;64.30
48806;DHT22;34625;47.176;27.548;2022-12-13T04:44:04;20.30;64.20
48806;DHT22;34625;47.176;27.548;2022-12-13T04:46:31;20.30;63.90
48806;DHT22;34625;47.176;27.548;2022-12-13T04:48:57;20.50;64.00
48806;DHT22;34625;47.176;27.548;2022-12-13T04:51:23;20.40;63.60
48806;DHT22;34625;47.176;27.548;2022-12-13T04:53:49;20.40;63.60
48806;DHT22;34625;47.176;27.548;2022-12-13T04:56:15;20.50;64.00
48806;DHT22;34625;47.176;27.548;2022-12-13T04:58:41;20.40;64.00
48806;DHT22;34625;47.176;27.548;2022-12-13T05:01:08;20.40;63.90
48806;DHT22;34625;47.176;27.548;2022-12-13T05:03:36;20.40;63.90
48806;DHT22;34625;47.176;27.548;2022-12-13T05:06:10;20.20;64.00
48806;DHT22;34625;47.176;27.548;2022-12-13T05:08:37;20.30;64.20
48806;DHT22;34625;47.176;27.548;2022-12-13T05:11:03;20.20;64.10
48806;DHT22;34625;47.176;27.548;2022-12-13T05:13:30;20.20;64.20
48806;DHT22;34625;47.176;27.548;2022-12-13T05:15:57;20.20;64.70
48806;DHT22;34625;47.176;27.548;2022-12-13T05:18:24;20.10;65.00
48806;DHT22;34625;47.176;27.548;2022-12-13T05:20:50;20.10;64.40
48806;DHT22;34625;47.176;27.548;2022-12-13T05:23:17;20.20;64.60
48806;DHT22;34625;47.176;27.548;2022-12-13T05:25:43;20.10;64.00
48806;DHT22;34625;47.176;27.548;2022-12-13T05:28:09;20.10;64.30
48806;DHT22;34625;47.176;27.548;2022-12-13T05:30:41;20.20;64.40
48806;DHT22;34625;47.176;27.548;2022-12-13T05:33:08;20.20;64.40
48806;DHT22;34625;47.176;27.548;2022-12-13T05:35:34;20.20;64.20
48806;DHT22;34625;47.176;27.548;2022-12-13T05:38:00;20.10;64.20
48806;DHT22;34625;47.176;27.548;2022-12-13T05:40:28;20.00;64.20
48806;DHT22;34625;47.176;27.548;2022-12-13T05:42:55;20.10;64.50
48806;DHT22;34625;47.176;27.548;2022-12-13T05:45:21;20.10;64.70
48806;DHT22;34625;47.176;27.548;2022-12-13T05:47:47;20.10;64.50
48806;DHT22;34625;47.176;27.548;2022-12-13T05:50:14;20.10;64.50
48806;DHT22;34625;47.176;27.548;2022-12-13T05:52:44;20.00;64.40
48806;DHT22;34625;47.176;27.548;2022-12-13T05:55:10;20.00;64.20
48806;DHT22;34625;47.176;27.548;2022-12-13T05:57:37;20.20;64.30
48806;DHT22;34625;47.176;27.548;2022-12-13T06:00:05;20.10;64.40
48806;DHT22;34625;47.176;27.548;2022-12-13T06:02:39;20.10;63.90
48806;DHT22;34625;47.176;27.548;2022-12-13T06:05:06;20.10;63.80
48806;DHT22;34625;47.176;27.548;2022-12-13T06:07:32;20.10;63.70
48806;DHT22;34625;47.176;27.548;2022-12-13T06:09:58;20.10;63.90
48806;DHT22;34625;47.176;27.548;2022-12-13T06:12:24;20.00;63.90
48806;DHT22;34625;47.176;27.548;2022-12-13T06:14:51;20.00;63.90
48806;DHT22;34625;47.176;27.548;2022-12-13T06:17:17;20.00;64.10
48806;DHT22;34625;47.176;27.548;2022-12-13T06:19:44;19.90;64.20
48806;DHT22;34625;47.176;27.548;2022-12-13T06:22:11;20.00;64.30
48806;DHT22;34625;47.176;27.548;2022-12-13T06:24:37;19.90;64.30
48806;DHT22;34625;47.176;27.548;2022-12-13T06:27:03;19.90;64.20
48806;DHT22;34625;47.176;27.548;2022-12-13T06:29:30;20.00;64.40
48806;DHT22;34625;47.176;27.548;2022-12-13T06:31:58;19.90;64.60
48806;DHT22;34625;47.176;27.548;2022-12-13T06:34:25;19.90;64.00
48806;DHT22;34625;47.176;27.548;2022-12-13T06:36:51;19.90;64.10
48806;DHT22;34625;47.176;27.548;2022-12-13T06:39:17;20.00;63.70
48806;DHT22;34625;47.176;27.548;2022-12-13T06:41:44;20.10;63.60
48806;DHT22;34625;47.176;27.548;2022-12-13T06:44:10;19.90;63.40
48806;DHT22;34625;47.176;27.548;2022-12-13T06:46:36;19.90;63.50
48806;DHT22;34625;47.176;27.548;2022-12-13T06:49:03;19.90;63.40
48806;DHT22;34625;47.176;27.548;2022-12-13T06:51:29;19.90;62.10
48806;DHT22;34625;47.176;27.548;2022-12-13T06:53:55;19.90;62.50
48806;DHT22;34625;47.176;27.548;2022-12-13T06:56:21;20.00;54.20
48806;DHT22;34625;47.176;27.548;2022-12-13T06:58:47;20.40;64.20
48806;DHT22;34625;47.176;27.548;2022-12-13T07:01:15;20.80;62.80
48806;DHT22;34625;47.176;27.548;2022-12-13T07:03:42;21.10;62.00
48806;DHT22;34625;47.176;27.548;2022-12-13T07:06:16;21.30;61.60
48806;DHT22;34625;47.176;27.548;2022-12-13T07:08:50;21.40;58.10
48806;DHT22;34625;47.176;27.548;2022-12-13T07:11:18;21.70;56.70
48806;DHT22;34625;47.176;27.548;2022-12-13T07:13:44;21.70;50.60
48806;DHT22;34625;47.176;27.548;2022-12-13T07:16:11;21.60;48.10
48806;DHT22;34625;47.176;27.548;2022-12-13T07:18:37;21.40;49.40
48806;DHT22;34625;47.176;27.548;2022-12-13T07:21:05;21.40;54.90
48806;DHT22;34625;47.176;27.548;2022-12-13T07:23:33;21.40;55.30
48806;DHT22;34625;47.176;27.548;2022-12-13T07:25:59;21.30;55.90
48806;DHT22;34625;47.176;27.548;2022-12-13T07:28:25;21.30;56.20
48806;DHT22;34625;47.176;27.548;2022-12-13T07:30:51;21.10;56.50
48806;DHT22;34625;47.176;27.548;2022-12-13T07:33:17;21.20;57.00
48806;DHT22;34625;47.176;27.548;2022-12-13T07:35:43;21.00;57.10
48806;DHT22;34625;47.176;27.548;2022-12-13T07:38:10;21.00;57.40
48806;DHT22;34625;47.176;27.548;2022-12-13T07:40:38;21.10;60.00
48806;DHT22;34625;47.176;27.548;2022-12-13T07:43:05;20.90;58.60
48806;DHT22;34625;47.176;27.548;2022-12-13T07:45:31;21.00;58.80
48806;DHT22;34625;47.176;27.548;2022-12-13T07:48:02;20.80;59.10
48806;DHT22;34625;47.176;27.548;2022-12-13T07:50:28;20.80;59.60
48806;DHT22;34625;47.176;27.548;2022-12-13T07:52:54;20.70;59.90
48806;DHT22;34625;47.176;27.548;2022-12-13T07:55:20;20.70;60.10
48806;DHT22;34625;47.176;27.548;2022-12-13T07:57:46;20.60;60.20
48806;DHT22;34625;47.176;27.548;2022-12-13T08:00:12;20.50;60.60
48806;DHT22;34625;47.176;27.548;2022-12-13T08:02:40;20.40;60.60
48806;DHT22;34625;47.176;27.548;2022-12-13T08:05:07;20.40;61.00
48806;DHT22;34625;47.176;27.548;2022-12-13T08:07:33;20.50;61.50
48806;DHT22;34625;47.176;27.548;2022-12-13T08:09:58;20.40;61.30
48806;DHT22;34625;47.176;27.548;2022-12-13T08:12:24;20.50;61.40
48806;DHT22;34625;47.176;27.548;2022-12-13T08:14:51;20.50;61.20
48806;DHT22;34625;47.176;27.548;2022-12-13T08:17:17;20.50;61.00
48806;DHT22;34625;47.176;27.548;2022-12-13T08:19:43;20.60;61.80
48806;DHT22;34625;47.176;27.548;2022-12-13T08:22:11;20.60;61.00
48806;DHT22;34625;47.176;27.548;2022-12-13T08:24:38;20.60;60.80
48806;DHT22;34625;47.176;27.548;2022-12-13T08:27:04;20.60;61.20
48806;DHT22;34625;47.176;27.548;2022-12-13T08:29:32;20.60;61.30
48806;DHT22;34625;47.176;27.548;2022-12-13T08:32:03;20.90;60.50
48806;DHT22;34625;47.176;27.548;2022-12-13T08:34:29;20.80;60.30
48806;DHT22;34625;47.176;27.548;2022-12-13T08:36:56;20.90;60.50
48806;DHT22;34625;47.176;27.548;2022-12-13T08:39:22;21.00;60.40
48806;DHT22;34625;47.176;27.548;2022-12-13T08:41:48;21.00;59.70
48806;DHT22;34625;47.176;27.548;2022-12-13T08:44:14;21.00;60.20
48806;DHT22;34625;47.176;27.548;2022-12-13T08:46:40;21.00;60.10
48806;DHT22;34625;47.176;27.548;2022-12-13T08:49:06;20.80;60.20
48806;DHT22;34625;47.176;27.548;2022-12-13T08:51:32;20.90;60.00
48806;DHT22;34625;47.176;27.548;2022-12-13T08:53:58;21.00;60.10
48806;DHT22;34625;47.176;27.548;2022-12-13T08:56:23;21.20;59.60
48806;DHT22;34625;47.176;27.548;2022-12-13T08:58:50;21.10;59.30
48806;DHT22;34625;47.176;27.548;2022-12-13T09:01:17;21.30;59.30
48806;DHT22;34625;47.176;27.548;2022-12-13T09:03:43;21.20;59.50
48806;DHT22;34625;47.176;27.548;2022-12-13T09:06:12;21.30;59.70
48806;DHT22;34625;47.176;27.548;2022-12-13T09:08:38;21.10;59.60
48806;DHT22;34625;47.176;27.548;2022-12-13T09:11:05;21.20;59.70
48806;DHT22;34625;47.176;27.548;2022-12-13T09:13:33;21.40;59.60
48806;DHT22;34625;47.176;27.548;2022-12-13T09:16:09;21.40;63.30
48806;DHT22;34625;47.176;27.548;2022-12-13T09:18:36;21.50;66.50
48806;DHT22;34625;47.176;27.548;2022-12-13T09:21:10;21.60;62.10
48806;DHT22;34625;47.176;27.548;2022-12-13T09:23:37;21.50;61.70
48806;DHT22;34625;47.176;27.548;2022-12-13T09:26:05;21.40;61.80
48806;DHT22;34625;47.176;27.548;2022-12-13T09:28:33;21.50;61.60
48806;DHT22;34625;47.176;27.548;2022-12-13T09:30:59;21.50;61.70
48806;DHT22;34625;47.176;27.548;2022-12-13T09:33:25;21.30;62.10
48806;DHT22;34625;47.176;27.548;2022-12-13T09:35:51;21.30;62.10
48806;DHT22;34625;47.176;27.548;2022-12-13T09:38:18;21.50;62.00
48806;DHT22;34625;47.176;27.548;2022-12-13T09:40:46;21.50;61.10
48806;DHT22;34625;47.176;27.548;2022-12-13T09:43:23;21.60;61.40
48806;DHT22;34625;47.176;27.548;2022-12-13T09:45:51;21.60;60.80
48806;DHT22;34625;47.176;27.548;2022-12-13T09:48:19;21.50;62.00
48806;DHT22;34625;47.176;27.548;2022-12-13T09:50:46;21.50;62.10
48806;DHT22;34625;47.176;27.548;2022-12-13T09:53:16;21.60;61.80
48806;DHT22;34625;47.176;27.548;2022-12-13T09:55:47;21.50;62.30
48806;DHT22;34625;47.176;27.548;2022-12-13T09:58:20;21.50;61.70
48806;DHT22;34625;47.176;27.548;2022-12-13T10:00:49;21.50;62.20
48806;DHT22;34625;47.176;27.548;2022-12-13T10:03:19;21.50;62.40
48806;DHT22;34625;47.176;27.548;2022-12-13T10:05:53;21.40;62.10
48806;DHT22;34625;47.176;27.548;2022-12-13T10:08:23;21.50;48.00
48806;DHT22;34625;47.176;27.548;2022-12-13T10:10:51;21.60;50.00
48806;DHT22;34625;47.176;27.548;2022-12-13T10:16:29;22.00;48.40
48806;DHT22;34625;47.176;27.548;2022-12-13T10:18:56;22.10;46.30
48806;DHT22;34625;47.176;27.548;2022-12-13T10:23:51;22.20;46.00
48806;DHT22;34625;47.176;27.548;2022-12-13T10:26:17;22.20;46.70
48806;DHT22;34625;47.176;27.548;2022-12-13T10:28:43;22.20;47.00
48806;DHT22;34625;47.176;27.548;2022-12-13T10:31:19;22.20;46.00
48806;DHT22;34625;47.176;27.548;2022-12-13T10:33:54;22.30;45.30
48806;DHT22;34625;47.176;27.548;2022-12-13T10:36:34;22.40;50.50
48806;DHT22;34625;47.176;27.548;2022-12-13T10:39:04;22.50;51.90
48806;DHT22;34625;47.176;27.548;2022-12-13T10:41:37;22.60;47.50
48806;DHT22;34625;47.176;27.548;2022-12-13T10:46:41;22.50;42.40
48806;DHT22;34625;47.176;27.548;2022-12-13T10:49:22;22.60;43.40
48806;DHT22;34625;47.176;27.548;2022-12-13T10:51:50;22.60;47.20
48806;DHT22;34625;47.176;27.548;2022-12-13T10:54:29;22.60;45.80
48806;DHT22;34625;47.176;27.548;2022-12-13T10:56:56;22.60;46.00
48806;DHT22;34625;47.176;27.548;2022-12-13T10:59:26;22.60;46.40
48806;DHT22;34625;47.176;27.548;2022-12-13T11:01:55;22.60;48.10
48806;DHT22;34625;47.176;27.548;2022-12-13T11:04:31;22.70;46.80
48806;DHT22;34625;47.176;27.548;2022-12-13T11:09:43;22.80;57.80
48806;DHT22;34625;47.176;27.548;2022-12-13T11:12:13;22.90;58.50
48806;DHT22;34625;47.176;27.548;2022-12-13T11:14:54;22.70;58.40
48806;DHT22;34625;47.176;27.548;2022-12-13T11:17:23;22.70;58.40
48806;DHT22;34625;47.176;27.548;2022-12-13T11:19:53;22.50;58.40
48806;DHT22;34625;47.176;27.548;2022-12-13T11:22:26;22.30;58.80
48806;DHT22;34625;47.176;27.548;2022-12-13T11:25:07;22.10;60.00
48806;DHT22;34625;47.176;27.548;2022-12-13T11:30:42;22.00;60.60
48806;DHT22;34625;47.176;27.548;2022-12-13T11:36:08;21.80;60.80
48806;DHT22;34625;47.176;27.548;2022-12-13T11:41:48;21.80;61.90
48806;DHT22;34625;47.176;27.548;2022-12-13T11:44:16;21.80;61.00
48806;DHT22;34625;47.176;27.548;2022-12-13T11:46:49;21.80;61.40
48806;DHT22;34625;47.176;27.548;2022-12-13T11:49:21;22.00;61.50
48806;DHT22;34625;47.176;27.548;2022-12-13T11:52:00;21.80;61.50
48806;DHT22;34625;47.176;27.548;2022-12-13T11:54:37;21.80;62.50
48806;DHT22;34625;47.176;27.548;2022-12-13T11:57:16;21.70;61.70
48806;DHT22;34625;47.176;27.548;2022-12-13T11:59:51;21.70;63.30
48806;DHT22;34625;47.176;27.548;2022-12-13T12:02:29;21.70;63.50
48806;DHT22;34625;47.176;27.548;2022-12-13T12:05:01;21.60;63.30
48806;DHT22;34625;47.176;27.548;2022-12-13T12:07:38;21.50;61.80
48806;DHT22;34625;47.176;27.548;2022-12-13T12:13:28;21.40;64.80
48806;DHT22;34625;47.176;27.548;2022-12-13T12:18:32;21.30;65.20
48806;DHT22;34625;47.176;27.548;2022-12-13T12:23:40;21.30;65.30
48806;DHT22;34625;47.176;27.548;2022-12-13T12:26:14;21.30;63.50
48806;DHT22;34625;47.176;27.548;2022-12-13T12:29:09;21.20;65.30
48806;DHT22;34625;47.176;27.548;2022-12-13T12:51:24;21.20;64.70
48806;DHT22;34625;47.176;27.548;2022-12-13T12:56:51;21.00;60.80
48806;DHT22;34625;47.176;27.548;2022-12-13T12:59:45;20.90;64.20
48806;DHT22;34625;47.176;27.548;2022-12-13T13:02:28;21.00;61.10
48806;DHT22;34625;47.176;27.548;2022-12-13T13:05:01;20.90;64.00
48806;DHT22;34625;47.176;27.548;2022-12-13T13:07:33;20.70;64.30
48806;DHT22;34625;47.176;27.548;2022-12-13T13:10:02;20.70;63.70
48806;DHT22;34625;47.176;27.548;2022-12-13T13:12:30;20.70;64.60
48806;DHT22;34625;47.176;27.548;2022-12-13T13:14:57;20.70;64.50
48806;DHT22;34625;47.176;27.548;2022-12-13T13:19:53;20.50;64.90
48806;DHT22;34625;47.176;27.548;2022-12-13T13:22:28;20.70;64.60
48806;DHT22;34625;47.176;27.548;2022-12-13T13:27:43;20.70;61.00
48806;DHT22;34625;47.176;27.548;2022-12-13T13:30:19;20.60;63.30
48806;DHT22;34625;47.176;27.548;2022-12-13T13:32:48;20.60;63.80
48806;DHT22;34625;47.176;27.548;2022-12-13T13:38:26;20.60;63.30
48806;DHT22;34625;47.176;27.548;2022-12-13T13:40:52;20.60;62.50
48806;DHT22;34625;47.176;27.548;2022-12-13T13:43:28;20.70;63.20
48806;DHT22;34625;47.176;27.548;2022-12-13T13:46:09;20.70;62.70
48806;DHT22;34625;47.176;27.548;2022-12-13T13:57:02;20.60;62.60
48806;DHT22;34625;47.176;27.548;2022-12-13T14:08:50;20.50;62.70
48806;DHT22;34625;47.176;27.548;2022-12-13T14:11:56;20.30;62.80
48806;DHT22;34625;47.176;27.548;2022-12-13T14:19:58;20.40;62.70
48806;DHT22;34625;47.176;27.548;2022-12-13T14:22:48;20.40;62.20
48806;DHT22;34625;47.176;27.548;2022-12-13T14:28:04;20.60;61.90
48806;DHT22;34625;47.176;27.548;2022-12-13T14:30:34;20.60;61.50
48806;DHT22;34625;47.176;27.548;2022-12-13T14:33:04;20.60;61.40
48806;DHT22;34625;47.176;27.548;2022-12-13T14:35:31;20.80;61.20
48806;DHT22;34625;47.176;27.548;2022-12-13T14:38:01;20.80;60.70
48806;DHT22;34625;47.176;27.548;2022-12-13T14:40:31;20.90;60.90
48806;DHT22;34625;47.176;27.548;2022-12-13T14:42:58;21.00;60.40
48806;DHT22;34625;47.176;27.548;2022-12-13T14:45:28;21.00;60.40
48806;DHT22;34625;47.176;27.548;2022-12-13T14:47:56;20.90;60.50
48806;DHT22;34625;47.176;27.548;2022-12-13T14:50:25;21.00;60.40
48806;DHT22;34625;47.176;27.548;2022-12-13T14:52:51;21.00;60.40
48806;DHT22;34625;47.176;27.548;2022-12-13T14:55:30;21.10;60.30
48806;DHT22;34625;47.176;27.548;2022-12-13T14:58:00;21.30;59.70
48806;DHT22;34625;47.176;27.548;2022-12-13T15:00:31;21.00;60.20
48806;DHT22;34625;47.176;27.548;2022-12-13T15:03:00;21.10;60.10
48806;DHT22;34625;47.176;27.548;2022-12-13T15:05:39;21.10;60.00
48806;DHT22;34625;47.176;27.548;2022-12-13T15:08:14;21.40;59.20
48806;DHT22;34625;47.176;27.548;2022-12-13T15:10:49;21.50;58.40
48806;DHT22;34625;47.176;27.548;2022-12-13T15:13:43;21.70;61.20
48806;DHT22;34625;47.176;27.548;2022-12-13T15:16:26;22.10;59.70
48806;DHT22;34625;47.176;27.548;2022-12-13T15:19:17;22.40;61.10
48806;DHT22;34625;47.176;27.548;2022-12-13T15:21:59;22.70;58.00
48806;DHT22;34625;47.176;27.548;2022-12-13T15:24:31;22.80;56.10
48806;DHT22;34625;47.176;27.548;2022-12-13T15:27:01;23.00;53.90
48806;DHT22;34625;47.176;27.548;2022-12-13T15:29:31;22.90;45.30
48806;DHT22;34625;47.176;27.548;2022-12-13T15:32:01;22.80;43.00
48806;DHT22;34625;47.176;27.548;2022-12-13T15:36:58;22.80;51.10
48806;DHT22;34625;47.176;27.548;2022-12-13T15:39:25;22.60;51.20
48806;DHT22;34625;47.176;27.548;2022-12-13T15:41:54;22.50;52.20
48806;DHT22;34625;47.176;27.548;2022-12-13T15:44:27;22.30;52.60
48806;DHT22;34625;47.176;27.548;2022-12-13T15:47:00;22.20;53.40
48806;DHT22;34625;47.176;27.548;2022-12-13T15:49:40;22.10;53.90
48806;DHT22;34625;47.176;27.548;2022-12-13T15:54:52;21.70;55.40
48806;DHT22;34625;47.176;27.548;2022-12-13T15:57:26;21.60;56.10
48806;DHT22;34625;47.176;27.548;2022-12-13T16:05:24;21.50;57.70
48806;DHT22;34625;47.176;27.548;2022-12-13T16:08:25;21.40;57.90
48806;DHT22;34625;47.176;27.548;2022-12-13T16:10:53;21.40;58.10
48806;DHT22;34625;47.176;27.548;2022-12-13T16:15:56;21.30;58.40
48806;DHT22;34625;47.176;27.548;2022-12-13T16:18:25;21.20;58.40
48806;DHT22;34625;47.176;27.548;2022-12-13T16:20:55;21.20;58.60
48806;DHT22;34625;47.176;27.548;2022-12-13T16:23:21;21.20;58.80
48806;DHT22;34625;47.176;27.548;2022-12-13T16:25:47;21.20;59.40
48806;DHT22;34625;47.176;27.548;2022-12-13T16:28:15;21.10;59.50
48806;DHT22;34625;47.176;27.548;2022-12-13T16:33:20;21.00;60.00
48806;DHT22;34625;47.176;27.548;2022-12-13T16:35:47;20.90;60.50
48806;DHT22;34625;47.176;27.548;2022-12-13T16:38:14;20.90;60.30
48806;DHT22;34625;47.176;27.548;2022-12-13T16:40:42;20.90;60.60
48806;DHT22;34625;47.176;27.548;2022-12-13T16:43:19;20.90;61.20
48806;DHT22;34625;47.176;27.548;2022-12-13T16:45:50;20.90;61.40
48806;DHT22;34625;47.176;27.548;2022-12-13T16:48:17;20.90;61.50
48806;DHT22;34625;47.176;27.548;2022-12-13T16:50:46;20.90;61.60
48806;DHT22;34625;47.176;27.548;2022-12-13T16:53:13;20.80;61.60
48806;DHT22;34625;47.176;27.548;2022-12-13T16:55:40;20.80;61.70
48806;DHT22;34625;47.176;27.548;2022-12-13T16:58:11;20.80;62.30
48806;DHT22;34625;47.176;27.548;2022-12-13T17:00:37;20.80;61.80
48806;DHT22;34625;47.176;27.548;2022-12-13T17:03:06;20.90;61.70
48806;DHT22;34625;47.176;27.548;2022-12-13T17:05:33;21.00;61.40
48806;DHT22;34625;47.176;27.548;2022-12-13T17:08:00;21.00;61.10
48806;DHT22;34625;47.176;27.548;2022-12-13T17:10:26;21.00;61.20
48806;DHT22;34625;47.176;27.548;2022-12-13T17:12:53;21.00;61.80
48806;DHT22;34625;47.176;27.548;2022-12-13T17:15:19;21.00;61.90
48806;DHT22;34625;47.176;27.548;2022-12-13T17:17:46;21.00;61.90
48806;DHT22;34625;47.176;27.548;2022-12-13T17:20:14;21.00;62.50
48806;DHT22;34625;47.176;27.548;2022-12-13T17:22:45;21.20;62.00
48806;DHT22;34625;47.176;27.548;2022-12-13T17:25:12;21.20;61.20
48806;DHT22;34625;47.176;27.548;2022-12-13T17:27:38;21.20;60.60
48806;DHT22;34625;47.176;27.548;2022-12-13T17:30:06;21.20;60.40
48806;DHT22;34625;47.176;27.548;2022-12-13T17:32:34;21.20;60.40
48806;DHT22;34625;47.176;27.548;2022-12-13T17:35:01;21.10;60.90
48806;DHT22;34625;47.176;27.548;2022-12-13T17:37:27;21.10;60.90
48806;DHT22;34625;47.176;27.548;2022-12-13T17:39:55;21.00;60.90
48806;DHT22;34625;47.176;27.548;2022-12-13T17:42:21;21.20;60.90
48806;DHT22;34625;47.176;27.548;2022-12-13T17:44:47;21.00;60.80